sensor_id;sensor_type;location;lat;lon;timestamp;temperature;humidity
22706;DHT22;11520;51.198;4.468;2022-11-13T00:00:50;9.50;99.90
22706;DHT22;11520;51.198;4.468;2022-11-13T00:03:17;9.50;99.90
22706;DHT22;11520;51.198;4.468;2022-11-13T00:05:43;9.50;99.90
22706;DHT22;11520;51.198;4.468;2022-11-13T00:08:08;9.50;99.90
22706;DHT22;11520;51.198;4.468;2022-11-13T00:10:35;9.40;99.90
22706;DHT22;11520;51.198;4.468;2022-11-13T00:13:01;9.40;99.90
22706;DHT22;11520;51.198;4.468;2022-11-13T00:15:27;9.40;99.90
22706;DHT22;11520;51.198;4.468;2022-11-13T00:17:52;9.30;99.90
22706;DHT22;11520;51.198;4.468;2022-11-13T00:20:19;9.30;99.90
22706;DHT22;11520;51.198;4.468;2022-11-13T00:22:45;9.30;99.90
22706;DHT22;11520;51.198;4.468;2022-11-13T00:25:11;9.30;99.90
22706;DHT22;11520;51.198;4.468;2022-11-13T00:27:38;9.20;99.90
22706;DHT22;11520;51.198;4.468;2022-11-13T00:30:04;9.20;99.90
22706;DHT22;11520;51.198;4.468;2022-11-13T00:32:30;9.10;99.90
22706;DHT22;11520;51.198;4.468;2022-11-13T00:34:58;9.10;99.90
22706;DHT22;11520;51.198;4.468;2022-11-13T00:37:25;9.10;99.90
22706;DHT22;11520;51.198;4.468;2022-11-13T00:39:51;9.00;99.90
22706;DHT22;11520;51.198;4.468;2022-11-13T00:42:17;9.00;99.90
22706;DHT22;11520;51.198;4.468;2022-11-13T00:44:43;9.00;99.90
22706;DHT22;11520;51.198;4.468;2022-11-13T00:47:08;9.00;99.90
22706;DHT22;11520;51.198;4.468;2022-11-13T00:49:34;8.90;99.90
22706;DHT22;11520;51.198;4.468;2022-11-13T00:52:00;8.90;99.90
22706;DHT22;11520;51.198;4.468;2022-11-13T00:54:27;8.80;99.90
22706;DHT22;11520;51.198;4.468;2022-11-13T00:56:52;8.80;99.90
22706;DHT22;11520;51.198;4.468;2022-11-13T00:59:19;8.70;99.90
22706;DHT22;11520;51.198;4.468;2022-11-13T01:01:45;8.70;99.90
22706;DHT22;11520;51.198;4.468;2022-11-13T01:04:10;8.80;99.90
22706;DHT22;11520;51.198;4.468;2022-11-13T01:06:36;8.70;99.90
22706;DHT22;11520;51.198;4.468;2022-11-13T01:09:01;8.70;99.90
22706;DHT22;11520;51.198;4.468;2022-11-13T01:11:29;8.70;99.90
22706;DHT22;11520;51.198;4.468;2022-11-13T01:13:56;8.70;99.90
22706;DHT22;11520;51.198;4.468;2022-11-13T01:16:24;8.60;99.90
22706;DHT22;11520;51.198;4.468;2022-11-13T01:18:52;8.60;99.90
22706;DHT22;11520;51.198;4.468;2022-11-13T01:21:21;8.50;99.90
22706;DHT22;11520;51.198;4.468;2022-11-13T01:23:47;8.50;99.90
22706;DHT22;11520;51.198;4.468;2022-11-13T01:26:16;8.50;99.90
22706;DHT22;11520;51.198;4.468;2022-11-13T01:28:43;8.60;99.90
22706;DHT22;11520;51.198;4.468;2022-11-13T01:31:13;8.50;99.90
22706;DHT22;11520;51.198;4.468;2022-11-13T01:33:40;8.50;99.90
22706;DHT22;11520;51.198;4.468;2022-11-13T01:36:09;8.50;99.90
22706;DHT22;11520;51.198;4.468;2022-11-13T01:38:35;8.50;99.90
22706;DHT22;11520;51.198;4.468;2022-11-13T01:41:00;8.50;99.90
22706;DHT22;11520;51.198;4.468;2022-11-13T01:43:30;8.50;99.90
22706;DHT22;11520;51.198;4.468;2022-11-13T01:48:23;8.50;99.90
22706;DHT22;11520;51.198;4.468;2022-11-13T01:50:50;8.50;99.90
22706;DHT22;11520;51.198;4.468;2022-11-13T01:53:17;8.50;99.90
22706;DHT22;11520;51.198;4.468;2022-11-13T01:55:43;8.60;99.90
22706;DHT22;11520;51.198;4.468;2022-11-13T01:58:10;8.50;99.90
22706;DHT22;11520;51.198;4.468;2022-11-13T02:00:37;8.60;99.90
22706;DHT22;11520;51.198;4.468;2022-11-13T02:03:03;8.60;99.90
22706;DHT22;11520;51.198;4.468;2022-11-13T02:05:31;8.50;99.90
22706;DHT22;11520;51.198;4.468;2022-11-13T02:07:56;8.50;99.90
22706;DHT22;11520;51.198;4.468;2022-11-13T02:10:22;8.50;99.90
22706;DHT22;11520;51.198;4.468;2022-11-13T02:12:50;8.50;99.90
22706;DHT22;11520;51.198;4.468;2022-11-13T02:15:20;8.40;99.90
22706;DHT22;11520;51.198;4.468;2022-11-13T02:17:54;8.50;99.90
22706;DHT22;11520;51.198;4.468;2022-11-13T02:23:16;8.40;99.90
22706;DHT22;11520;51.198;4.468;2022-11-13T02:25:48;8.40;99.90
22706;DHT22;11520;51.198;4.468;2022-11-13T02:28:14;8.40;99.90
22706;DHT22;11520;51.198;4.468;2022-11-13T02:30:40;8.40;99.90
22706;DHT22;11520;51.198;4.468;2022-11-13T02:33:28;8.40;99.90
22706;DHT22;11520;51.198;4.468;2022-11-13T02:35:54;8.40;99.90
22706;DHT22;11520;51.198;4.468;2022-11-13T02:38:19;8.30;99.90
22706;DHT22;11520;51.198;4.468;2022-11-13T02:40:45;8.30;99.90
22706;DHT22;11520;51.198;4.468;2022-11-13T02:43:11;8.20;99.90
22706;DHT22;11520;51.198;4.468;2022-11-13T02:45:37;8.20;99.90
22706;DHT22;11520;51.198;4.468;2022-11-13T02:48:06;8.20;99.90
22706;DHT22;11520;51.198;4.468;2022-11-13T02:50:33;8.20;99.90
22706;DHT22;11520;51.198;4.468;2022-11-13T02:52:59;8.20;99.90
22706;DHT22;11520;51.198;4.468;2022-11-13T02:55:25;8.20;99.90
22706;DHT22;11520;51.198;4.468;2022-11-13T02:57:51;8.20;99.90
22706;DHT22;11520;51.198;4.468;2022-11-13T03:00:17;8.10;99.90
22706;DHT22;11520;51.198;4.468;2022-11-13T03:02:42;8.10;99.90
22706;DHT22;11520;51.198;4.468;2022-11-13T03:05:08;8.10;99.90
22706;DHT22;11520;51.198;4.468;2022-11-13T03:07:35;8.10;99.90
22706;DHT22;11520;51.198;4.468;2022-11-13T03:10:00;8.00;99.90
22706;DHT22;11520;51.198;4.468;2022-11-13T03:12:26;8.00;99.90
22706;DHT22;11520;51.198;4.468;2022-11-13T03:14:52;8.00;99.90
22706;DHT22;11520;51.198;4.468;2022-11-13T03:17:17;8.00;99.90
22706;DHT22;11520;51.198;4.468;2022-11-13T03:19:43;8.00;99.90
22706;DHT22;11520;51.198;4.468;2022-11-13T03:22:08;7.90;99.90
22706;DHT22;11520;51.198;4.468;2022-11-13T03:24:34;7.90;99.90
22706;DHT22;11520;51.198;4.468;2022-11-13T03:27:01;7.80;99.90
22706;DHT22;11520;51.198;4.468;2022-11-13T03:29:26;7.80;99.90
22706;DHT22;11520;51.198;4.468;2022-11-13T03:31:52;7.80;99.90
22706;DHT22;11520;51.198;4.468;2022-11-13T03:34:17;7.80;99.90
22706;DHT22;11520;51.198;4.468;2022-11-13T03:36:43;7.80;99.90
22706;DHT22;11520;51.198;4.468;2022-11-13T03:39:09;7.70;99.90
22706;DHT22;11520;51.198;4.468;2022-11-13T03:41:34;7.70;99.90
22706;DHT22;11520;51.198;4.468;2022-11-13T03:44:00;7.90;99.90
22706;DHT22;11520;51.198;4.468;2022-11-13T03:46:25;7.80;99.90
22706;DHT22;11520;51.198;4.468;2022-11-13T03:48:52;7.80;99.90
22706;DHT22;11520;51.198;4.468;2022-11-13T03:51:17;7.80;99.90
22706;DHT22;11520;51.198;4.468;2022-11-13T03:53:43;7.80;99.90
22706;DHT22;11520;51.198;4.468;2022-11-13T03:56:08;7.80;99.90
22706;DHT22;11520;51.198;4.468;2022-11-13T03:58:34;7.70;99.90
22706;DHT22;11520;51.198;4.468;2022-11-13T04:01:00;7.70;99.90
22706;DHT22;11520;51.198;4.468;2022-11-13T04:03:25;7.70;99.90
22706;DHT22;11520;51.198;4.468;2022-11-13T04:05:51;7.60;99.90
22706;DHT22;11520;51.198;4.468;2022-11-13T04:08:17;7.50;99.90
22706;DHT22;11520;51.198;4.468;2022-11-13T04:10:44;7.50;99.90
22706;DHT22;11520;51.198;4.468;2022-11-13T04:13:10;7.50;99.90
22706;DHT22;11520;51.198;4.468;2022-11-13T04:15:36;7.50;99.90
22706;DHT22;11520;51.198;4.468;2022-11-13T04:18:02;7.40;99.90
22706;DHT22;11520;51.198;4.468;2022-11-13T04:20:28;7.40;99.90
22706;DHT22;11520;51.198;4.468;2022-11-13T04:22:57;7.40;99.90
22706;DHT22;11520;51.198;4.468;2022-11-13T04:25:23;7.40;99.90
22706;DHT22;11520;51.198;4.468;2022-11-13T04:27:50;7.40;99.90
22706;DHT22;11520;51.198;4.468;2022-11-13T04:30:16;7.40;99.90
22706;DHT22;11520;51.198;4.468;2022-11-13T04:32:43;7.40;99.90
22706;DHT22;11520;51.198;4.468;2022-11-13T04:35:10;7.40;99.90
22706;DHT22;11520;51.198;4.468;2022-11-13T04:37:35;7.40;99.90
22706;DHT22;11520;51.198;4.468;2022-11-13T04:40:02;7.50;99.90
22706;DHT22;11520;51.198;4.468;2022-11-13T04:42:28;7.40;99.90
22706;DHT22;11520;51.198;4.468;2022-11-13T04:45:12;7.40;99.90
22706;DHT22;11520;51.198;4.468;2022-11-13T04:47:38;7.40;99.90
22706;DHT22;11520;51.198;4.468;2022-11-13T04:50:04;7.40;99.90
22706;DHT22;11520;51.198;4.468;2022-11-13T04:52:30;7.40;99.90
22706;DHT22;11520;51.198;4.468;2022-11-13T04:54:56;7.40;99.90
22706;DHT22;11520;51.198;4.468;2022-11-13T04:57:22;7.40;99.90
22706;DHT22;11520;51.198;4.468;2022-11-13T04:59:48;7.50;99.90
22706;DHT22;11520;51.198;4.468;2022-11-13T05:02:14;7.50;99.90
22706;DHT22;11520;51.198;4.468;2022-11-13T05:04:39;7.50;99.90
22706;DHT22;11520;51.198;4.468;2022-11-13T05:07:05;7.50;99.90
22706;DHT22;11520;51.198;4.468;2022-11-13T05:09:30;7.50;99.90
22706;DHT22;11520;51.198;4.468;2022-11-13T05:11:56;7.50;99.90
22706;DHT22;11520;51.198;4.468;2022-11-13T05:14:21;7.50;99.90
22706;DHT22;11520;51.198;4.468;2022-11-13T05:16:47;7.50;99.90
22706;DHT22;11520;51.198;4.468;2022-11-13T05:19:14;7.50;99.90
22706;DHT22;11520;51.198;4.468;2022-11-13T05:21:40;7.50;99.90
22706;DHT22;11520;51.198;4.468;2022-11-13T05:24:09;7.50;99.90
22706;DHT22;11520;51.198;4.468;2022-11-13T05:26:38;7.50;99.90
22706;DHT22;11520;51.198;4.468;2022-11-13T05:29:04;7.50;99.90
22706;DHT22;11520;51.198;4.468;2022-11-13T05:31:30;7.40;99.90
22706;DHT22;11520;51.198;4.468;2022-11-13T05:33:55;7.40;99.90
22706;DHT22;11520;51.198;4.468;2022-11-13T05:36:22;7.40;99.90
22706;DHT22;11520;51.198;4.468;2022-11-13T05:38:48;7.40;99.90
22706;DHT22;11520;51.198;4.468;2022-11-13T05:41:19;7.30;99.90
22706;DHT22;11520;51.198;4.468;2022-11-13T05:43:45;7.20;99.90
22706;DHT22;11520;51.198;4.468;2022-11-13T05:46:15;7.20;99.90
22706;DHT22;11520;51.198;4.468;2022-11-13T05:48:41;7.20;99.90
22706;DHT22;11520;51.198;4.468;2022-11-13T05:53:35;7.10;99.90
22706;DHT22;11520;51.198;4.468;2022-11-13T05:56:02;7.10;99.90
22706;DHT22;11520;51.198;4.468;2022-11-13T05:58:29;7.10;99.90
22706;DHT22;11520;51.198;4.468;2022-11-13T06:03:39;7.10;99.90
22706;DHT22;11520;51.198;4.468;2022-11-13T06:06:08;7.10;99.90
22706;DHT22;11520;51.198;4.468;2022-11-13T06:08:36;7.10;99.90
22706;DHT22;11520;51.198;4.468;2022-11-13T06:11:05;7.10;99.90
22706;DHT22;11520;51.198;4.468;2022-11-13T06:13:31;7.10;99.90
22706;DHT22;11520;51.198;4.468;2022-11-13T06:16:02;7.10;99.90
22706;DHT22;11520;51.198;4.468;2022-11-13T06:18:28;7.10;99.90
22706;DHT22;11520;51.198;4.468;2022-11-13T06:20:54;7.20;99.90
22706;DHT22;11520;51.198;4.468;2022-11-13T06:23:19;7.20;99.90
22706;DHT22;11520;51.198;4.468;2022-11-13T06:25:46;7.20;99.90
22706;DHT22;11520;51.198;4.468;2022-11-13T06:28:12;7.20;99.90
22706;DHT22;11520;51.198;4.468;2022-11-13T06:30:37;7.20;99.90
22706;DHT22;11520;51.198;4.468;2022-11-13T06:33:03;7.20;99.90
22706;DHT22;11520;51.198;4.468;2022-11-13T06:35:29;7.20;99.90
22706;DHT22;11520;51.198;4.468;2022-11-13T06:37:56;7.20;99.90
22706;DHT22;11520;51.198;4.468;2022-11-13T06:40:21;7.20;99.90
22706;DHT22;11520;51.198;4.468;2022-11-13T06:42:48;7.30;99.90
22706;DHT22;11520;51.198;4.468;2022-11-13T06:45:13;7.30;99.90
22706;DHT22;11520;51.198;4.468;2022-11-13T06:47:40;7.30;99.90
22706;DHT22;11520;51.198;4.468;2022-11-13T06:50:06;7.20;99.90
22706;DHT22;11520;51.198;4.468;2022-11-13T06:52:33;7.20;99.90
22706;DHT22;11520;51.198;4.468;2022-11-13T06:54:59;7.10;99.90
22706;DHT22;11520;51.198;4.468;2022-11-13T06:57:26;7.10;99.90
22706;DHT22;11520;51.198;4.468;2022-11-13T06:59:51;7.20;99.90
22706;DHT22;11520;51.198;4.468;2022-11-13T07:02:17;7.10;99.90
22706;DHT22;11520;51.198;4.468;2022-11-13T07:04:42;7.30;99.90
22706;DHT22;11520;51.198;4.468;2022-11-13T07:07:09;7.30;99.90
22706;DHT22;11520;51.198;4.468;2022-11-13T07:09:35;7.40;99.90
22706;DHT22;11520;51.198;4.468;2022-11-13T07:12:00;7.40;99.90
22706;DHT22;11520;51.198;4.468;2022-11-13T07:14:26;7.50;99.90
22706;DHT22;11520;51.198;4.468;2022-11-13T07:16:51;7.50;99.90
22706;DHT22;11520;51.198;4.468;2022-11-13T07:19:17;7.50;99.90
22706;DHT22;11520;51.198;4.468;2022-11-13T07:21:46;7.50;99.90
22706;DHT22;11520;51.198;4.468;2022-11-13T07:24:12;7.40;99.90
22706;DHT22;11520;51.198;4.468;2022-11-13T07:26:38;7.40;99.90
22706;DHT22;11520;51.198;4.468;2022-11-13T07:29:03;7.50;99.90
22706;DHT22;11520;51.198;4.468;2022-11-13T07:31:29;7.50;99.90
22706;DHT22;11520;51.198;4.468;2022-11-13T07:33:56;7.60;99.90
22706;DHT22;11520;51.198;4.468;2022-11-13T07:36:21;7.50;99.90
22706;DHT22;11520;51.198;4.468;2022-11-13T07:38:48;7.60;99.90
22706;DHT22;11520;51.198;4.468;2022-11-13T07:41:13;7.50;99.90
22706;DHT22;11520;51.198;4.468;2022-11-13T07:43:39;7.50;99.90
22706;DHT22;11520;51.198;4.468;2022-11-13T07:46:06;7.60;99.90
22706;DHT22;11520;51.198;4.468;2022-11-13T07:48:31;7.70;99.90
22706;DHT22;11520;51.198;4.468;2022-11-13T07:51:01;7.60;99.90
22706;DHT22;11520;51.198;4.468;2022-11-13T07:53:26;7.70;99.90
22706;DHT22;11520;51.198;4.468;2022-11-13T07:55:53;7.60;99.90
22706;DHT22;11520;51.198;4.468;2022-11-13T07:58:19;7.60;99.90
22706;DHT22;11520;51.198;4.468;2022-11-13T08:00:44;7.70;99.90
22706;DHT22;11520;51.198;4.468;2022-11-13T08:03:15;7.70;99.90
22706;DHT22;11520;51.198;4.468;2022-11-13T08:05:41;7.70;99.90
22706;DHT22;11520;51.198;4.468;2022-11-13T08:08:07;7.80;99.90
22706;DHT22;11520;51.198;4.468;2022-11-13T08:10:35;7.90;99.90
22706;DHT22;11520;51.198;4.468;2022-11-13T08:13:04;8.00;99.90
22706;DHT22;11520;51.198;4.468;2022-11-13T08:15:31;8.00;99.90
22706;DHT22;11520;51.198;4.468;2022-11-13T08:18:00;8.00;99.90
22706;DHT22;11520;51.198;4.468;2022-11-13T08:20:27;8.10;99.90
22706;DHT22;11520;51.198;4.468;2022-11-13T08:23:02;8.10;99.90
22706;DHT22;11520;51.198;4.468;2022-11-13T08:25:29;8.20;99.90
22706;DHT22;11520;51.198;4.468;2022-11-13T08:27:56;8.30;99.90
22706;DHT22;11520;51.198;4.468;2022-11-13T08:30:25;8.50;99.90
22706;DHT22;11520;51.198;4.468;2022-11-13T08:32:52;8.50;99.90
22706;DHT22;11520;51.198;4.468;2022-11-13T08:35:18;8.60;99.90
22706;DHT22;11520;51.198;4.468;2022-11-13T08:37:45;8.60;99.90
22706;DHT22;11520;51.198;4.468;2022-11-13T08:40:12;8.70;99.90
22706;DHT22;11520;51.198;4.468;2022-11-13T08:42:38;8.80;99.90
22706;DHT22;11520;51.198;4.468;2022-11-13T08:45:04;8.70;99.90
22706;DHT22;11520;51.198;4.468;2022-11-13T08:47:30;8.70;99.90
22706;DHT22;11520;51.198;4.468;2022-11-13T08:49:56;8.60;99.90
22706;DHT22;11520;51.198;4.468;2022-11-13T08:52:22;8.60;99.90
22706;DHT22;11520;51.198;4.468;2022-11-13T08:54:47;8.50;99.90
22706;DHT22;11520;51.198;4.468;2022-11-13T08:57:13;8.70;99.90
22706;DHT22;11520;51.198;4.468;2022-11-13T08:59:38;8.80;99.90
22706;DHT22;11520;51.198;4.468;2022-11-13T09:02:04;8.70;99.90
22706;DHT22;11520;51.198;4.468;2022-11-13T09:04:33;8.80;99.90
22706;DHT22;11520;51.198;4.468;2022-11-13T09:06:59;8.80;99.90
22706;DHT22;11520;51.198;4.468;2022-11-13T09:09:25;8.80;99.90
22706;DHT22;11520;51.198;4.468;2022-11-13T09:11:52;8.80;99.90
22706;DHT22;11520;51.198;4.468;2022-11-13T09:14:19;8.80;99.90
22706;DHT22;11520;51.198;4.468;2022-11-13T09:16:45;8.90;99.90
22706;DHT22;11520;51.198;4.468;2022-11-13T09:19:11;9.10;99.90
22706;DHT22;11520;51.198;4.468;2022-11-13T09:21:40;9.10;99.90
22706;DHT22;11520;51.198;4.468;2022-11-13T09:24:06;9.20;99.90
22706;DHT22;11520;51.198;4.468;2022-11-13T09:26:33;9.30;99.90
22706;DHT22;11520;51.198;4.468;2022-11-13T09:28:59;9.40;99.90
22706;DHT22;11520;51.198;4.468;2022-11-13T09:31:25;9.60;99.90
22706;DHT22;11520;51.198;4.468;2022-11-13T09:33:52;9.60;99.90
22706;DHT22;11520;51.198;4.468;2022-11-13T09:36:19;9.60;99.90
22706;DHT22;11520;51.198;4.468;2022-11-13T09:38:45;9.60;99.90
22706;DHT22;11520;51.198;4.468;2022-11-13T09:41:21;9.90;99.90
22706;DHT22;11520;51.198;4.468;2022-11-13T09:43:53;10.40;99.90
22706;DHT22;11520;51.198;4.468;2022-11-13T09:51:52;13.00;99.90
22706;DHT22;11520;51.198;4.468;2022-11-13T09:54:21;13.80;99.90
22706;DHT22;11520;51.198;4.468;2022-11-13T09:59:41;16.60;99.90
22706;DHT22;11520;51.198;4.468;2022-11-13T10:05:03;18.80;99.90
22706;DHT22;11520;51.198;4.468;2022-11-13T10:07:43;19.90;99.90
22706;DHT22;11520;51.198;4.468;2022-11-13T10:12:51;19.80;99.90
22706;DHT22;11520;51.198;4.468;2022-11-13T10:15:21;19.30;99.90
22706;DHT22;11520;51.198;4.468;2022-11-13T10:20:42;19.70;99.90
22706;DHT22;11520;51.198;4.468;2022-11-13T10:23:31;19.20;99.90
22706;DHT22;11520;51.198;4.468;2022-11-13T10:26:16;20.60;99.90
22706;DHT22;11520;51.198;4.468;2022-11-13T10:28:42;20.80;99.90
22706;DHT22;11520;51.198;4.468;2022-11-13T10:31:10;21.10;99.90
22706;DHT22;11520;51.198;4.468;2022-11-13T10:33:35;22.20;99.90
22706;DHT22;11520;51.198;4.468;2022-11-13T10:37:19;22.80;99.90
22706;DHT22;11520;51.198;4.468;2022-11-13T10:39:11;23.00;99.90
22706;DHT22;11520;51.198;4.468;2022-11-13T10:41:48;23.40;98.20
22706;DHT22;11520;51.198;4.468;2022-11-13T10:44:24;24.60;98.00
22706;DHT22;11520;51.198;4.468;2022-11-13T10:49:35;25.80;93.60
22706;DHT22;11520;51.198;4.468;2022-11-13T10:52:01;26.60;91.10
22706;DHT22;11520;51.198;4.468;2022-11-13T10:54:30;27.10;88.00
22706;DHT22;11520;51.198;4.468;2022-11-13T10:57:02;27.40;81.90
22706;DHT22;11520;51.198;4.468;2022-11-13T10:59:43;26.40;80.40
22706;DHT22;11520;51.198;4.468;2022-11-13T11:02:18;24.60;87.00
22706;DHT22;11520;51.198;4.468;2022-11-13T11:04:44;23.10;90.30
22706;DHT22;11520;51.198;4.468;2022-11-13T11:07:19;20.80;95.20
22706;DHT22;11520;51.198;4.468;2022-11-13T11:09:47;20.50;98.90
22706;DHT22;11520;51.198;4.468;2022-11-13T11:12:18;20.60;99.00
22706;DHT22;11520;51.198;4.468;2022-11-13T11:17:37;21.70;96.50
22706;DHT22;11520;51.198;4.468;2022-11-13T11:20:19;22.10;95.20
22706;DHT22;11520;51.198;4.468;2022-11-13T11:22:49;22.10;95.90
22706;DHT22;11520;51.198;4.468;2022-11-13T11:27:53;24.30;92.80
22706;DHT22;11520;51.198;4.468;2022-11-13T11:30:22;23.30;91.10
22706;DHT22;11520;51.198;4.468;2022-11-13T11:36:07;23.00;91.90
22706;DHT22;11520;51.198;4.468;2022-11-13T11:39:04;23.00;94.20
22706;DHT22;11520;51.198;4.468;2022-11-13T11:41:47;23.00;95.10
22706;DHT22;11520;51.198;4.468;2022-11-13T11:44:27;23.80;93.70
22706;DHT22;11520;51.198;4.468;2022-11-13T11:46:54;24.00;92.50
22706;DHT22;11520;51.198;4.468;2022-11-13T11:49:22;22.60;92.70
22706;DHT22;11520;51.198;4.468;2022-11-13T11:54:42;22.00;95.80
22706;DHT22;11520;51.198;4.468;2022-11-13T11:59:57;21.60;96.10
22706;DHT22;11520;51.198;4.468;2022-11-13T12:08:12;21.30;95.30
22706;DHT22;11520;51.198;4.468;2022-11-13T12:13:33;18.00;99.90
22706;DHT22;11520;51.198;4.468;2022-11-13T12:19:09;18.80;99.90
22706;DHT22;11520;51.198;4.468;2022-11-13T12:21:38;18.10;99.90
22706;DHT22;11520;51.198;4.468;2022-11-13T12:34:52;18.80;99.90
22706;DHT22;11520;51.198;4.468;2022-11-13T12:39:56;18.40;99.90
22706;DHT22;11520;51.198;4.468;2022-11-13T12:42:30;17.60;99.90
22706;DHT22;11520;51.198;4.468;2022-11-13T12:48:32;18.60;99.90
22706;DHT22;11520;51.198;4.468;2022-11-13T12:51:04;19.20;99.90
22706;DHT22;11520;51.198;4.468;2022-11-13T12:53:51;19.30;99.90
22706;DHT22;11520;51.198;4.468;2022-11-13T13:01:25;19.40;99.90
22706;DHT22;11520;51.198;4.468;2022-11-13T13:12:30;19.60;99.90
22706;DHT22;11520;51.198;4.468;2022-11-13T13:15:14;18.80;99.90
22706;DHT22;11520;51.198;4.468;2022-11-13T13:17:46;18.80;99.90
22706;DHT22;11520;51.198;4.468;2022-11-13T13:22:39;19.00;99.90
22706;DHT22;11520;51.198;4.468;2022-11-13T13:25:25;19.10;99.90
22706;DHT22;11520;51.198;4.468;2022-11-13T13:28:14;19.00;99.90
22706;DHT22;11520;51.198;4.468;2022-11-13T13:33:59;18.30;99.90
22706;DHT22;11520;51.198;4.468;2022-11-13T13:47:58;16.60;99.90
22706;DHT22;11520;51.198;4.468;2022-11-13T13:50:32;16.60;99.90
22706;DHT22;11520;51.198;4.468;2022-11-13T13:52:58;16.50;99.90
22706;DHT22;11520;51.198;4.468;2022-11-13T13:55:44;16.50;99.90
22706;DHT22;11520;51.198;4.468;2022-11-13T13:58:15;16.40;99.90
22706;DHT22;11520;51.198;4.468;2022-11-13T14:00:42;16.40;99.90
22706;DHT22;11520;51.198;4.468;2022-11-13T14:03:22;16.30;99.90
22706;DHT22;11520;51.198;4.468;2022-11-13T14:05:49;16.30;99.90
22706;DHT22;11520;51.198;4.468;2022-11-13T14:08:20;16.30;99.90
22706;DHT22;11520;51.198;4.468;2022-11-13T14:10:46;16.30;99.90
22706;DHT22;11520;51.198;4.468;2022-11-13T14:13:13;16.30;99.90
22706;DHT22;11520;51.198;4.468;2022-11-13T14:15:40;16.40;99.90
22706;DHT22;11520;51.198;4.468;2022-11-13T14:18:12;16.30;99.90
22706;DHT22;11520;51.198;4.468;2022-11-13T14:20:45;16.30;99.90
22706;DHT22;11520;51.198;4.468;2022-11-13T14:23:47;16.10;99.90
22706;DHT22;11520;51.198;4.468;2022-11-13T14:26:05;16.00;99.90
22706;DHT22;11520;51.198;4.468;2022-11-13T14:28:33;15.90;99.90
22706;DHT22;11520;51.198;4.468;2022-11-13T14:31:10;15.90;99.90
22706;DHT22;11520;51.198;4.468;2022-11-13T14:33:48;15.90;99.90
22706;DHT22;11520;51.198;4.468;2022-11-13T14:36:23;16.00;99.90
22706;DHT22;11520;51.198;4.468;2022-11-13T14:38:50;15.90;99.90
22706;DHT22;11520;51.198;4.468;2022-11-13T14:41:32;15.80;99.90
22706;DHT22;11520;51.198;4.468;2022-11-13T14:44:00;15.80;99.90
22706;DHT22;11520;51.198;4.468;2022-11-13T14:48:53;15.90;99.90
22706;DHT22;11520;51.198;4.468;2022-11-13T14:51:31;15.90;99.90
22706;DHT22;11520;51.198;4.468;2022-11-13T14:53:59;15.90;99.90
22706;DHT22;11520;51.198;4.468;2022-11-13T14:56:39;15.90;99.90
22706;DHT22;11520;51.198;4.468;2022-11-13T14:59:12;15.80;99.90
22706;DHT22;11520;51.198;4.468;2022-11-13T15:01:38;15.80;99.90
22706;DHT22;11520;51.198;4.468;2022-11-13T15:04:04;15.80;99.90
22706;DHT22;11520;51.198;4.468;2022-11-13T15:06:37;15.70;99.90
22706;DHT22;11520;51.198;4.468;2022-11-13T15:09:11;15.70;99.90
22706;DHT22;11520;51.198;4.468;2022-11-13T15:11:37;15.60;99.90
22706;DHT22;11520;51.198;4.468;2022-11-13T15:14:16;15.50;99.90
22706;DHT22;11520;51.198;4.468;2022-11-13T15:16:44;15.40;99.90
22706;DHT22;11520;51.198;4.468;2022-11-13T15:19:22;15.20;99.90
22706;DHT22;11520;51.198;4.468;2022-11-13T15:21:51;15.00;99.90
22706;DHT22;11520;51.198;4.468;2022-11-13T15:24:16;14.80;99.90
22706;DHT22;11520;51.198;4.468;2022-11-13T15:26:43;14.70;99.90
22706;DHT22;11520;51.198;4.468;2022-11-13T15:29:09;14.60;99.90
22706;DHT22;11520;51.198;4.468;2022-11-13T15:31:39;14.50;99.90
22706;DHT22;11520;51.198;4.468;2022-11-13T15:34:12;14.40;99.90
22706;DHT22;11520;51.198;4.468;2022-11-13T15:36:39;14.30;99.90
22706;DHT22;11520;51.198;4.468;2022-11-13T15:39:07;14.20;99.90
22706;DHT22;11520;51.198;4.468;2022-11-13T15:41:35;14.10;99.90
22706;DHT22;11520;51.198;4.468;2022-11-13T15:44:08;14.10;99.90
22706;DHT22;11520;51.198;4.468;2022-11-13T15:46:34;14.10;99.90
22706;DHT22;11520;51.198;4.468;2022-11-13T15:49:00;14.00;99.90
22706;DHT22;11520;51.198;4.468;2022-11-13T15:51:42;13.90;99.90
22706;DHT22;11520;51.198;4.468;2022-11-13T15:54:18;13.80;99.90
22706;DHT22;11520;51.198;4.468;2022-11-13T15:56:46;13.70;99.90
22706;DHT22;11520;51.198;4.468;2022-11-13T15:59:13;13.50;99.90
22706;DHT22;11520;51.198;4.468;2022-11-13T16:01:40;13.50;99.90
22706;DHT22;11520;51.198;4.468;2022-11-13T16:04:06;13.50;99.90
22706;DHT22;11520;51.198;4.468;2022-11-13T16:06:34;13.40;99.90
22706;DHT22;11520;51.198;4.468;2022-11-13T16:09:01;13.30;99.90
22706;DHT22;11520;51.198;4.468;2022-11-13T16:11:30;13.30;99.90
22706;DHT22;11520;51.198;4.468;2022-11-13T16:13:58;13.20;99.90
22706;DHT22;11520;51.198;4.468;2022-11-13T16:16:29;13.00;99.90
22706;DHT22;11520;51.198;4.468;2022-11-13T16:18:55;12.90;99.90
22706;DHT22;11520;51.198;4.468;2022-11-13T16:21:21;12.90;99.90
22706;DHT22;11520;51.198;4.468;2022-11-13T16:23:47;12.90;99.90
22706;DHT22;11520;51.198;4.468;2022-11-13T16:26:21;12.80;99.90
22706;DHT22;11520;51.198;4.468;2022-11-13T16:28:52;12.80;99.90
22706;DHT22;11520;51.198;4.468;2022-11-13T16:31:20;12.70;99.90
22706;DHT22;11520;51.198;4.468;2022-11-13T16:33:46;12.60;99.90
22706;DHT22;11520;51.198;4.468;2022-11-13T16:36:17;12.50;99.90
22706;DHT22;11520;51.198;4.468;2022-11-13T16:38:43;12.50;99.90
22706;DHT22;11520;51.198;4.468;2022-11-13T16:41:10;12.40;99.90
22706;DHT22;11520;51.198;4.468;2022-11-13T16:43:37;12.30;99.90
22706;DHT22;11520;51.198;4.468;2022-11-13T16:46:31;12.20;99.90
22706;DHT22;11520;51.198;4.468;2022-11-13T16:48:58;12.10;99.90
22706;DHT22;11520;51.198;4.468;2022-11-13T16:51:23;12.00;99.90
22706;DHT22;11520;51.198;4.468;2022-11-13T16:53:49;12.00;99.90
22706;DHT22;11520;51.198;4.468;2022-11-13T16:56:19;11.90;99.90
22706;DHT22;11520;51.198;4.468;2022-11-13T16:58:48;11.80;99.90
22706;DHT22;11520;51.198;4.468;2022-11-13T17:01:19;11.80;99.90
22706;DHT22;11520;51.198;4.468;2022-11-13T17:03:46;11.70;99.90
22706;DHT22;11520;51.198;4.468;2022-11-13T17:06:31;11.70;99.90
22706;DHT22;11520;51.198;4.468;2022-11-13T17:08:59;11.60;99.90
22706;DHT22;11520;51.198;4.468;2022-11-13T17:11:28;11.50;99.90
22706;DHT22;11520;51.198;4.468;2022-11-13T17:13:55;11.40;99.90
22706;DHT22;11520;51.198;4.468;2022-11-13T17:16:23;11.40;99.90
22706;DHT22;11520;51.198;4.468;2022-11-13T17:18:49;11.30;99.90
22706;DHT22;11520;51.198;4.468;2022-11-13T17:21:16;11.30;99.90
22706;DHT22;11520;51.198;4.468;2022-11-13T17:23:42;11.30;99.90
22706;DHT22;11520;51.198;4.468;2022-11-13T17:26:09;11.10;99.90
22706;DHT22;11520;51.198;4.468;2022-11-13T17:28:34;11.10;99.90
22706;DHT22;11520;51.198;4.468;2022-11-13T17:31:05;11.00;99.90
22706;DHT22;11520;51.198;4.468;2022-11-13T17:33:32;11.00;99.90